Latest Coastal Weather Observations for Hobart

IDT60701

Issued at 11:35 am EST Thursday 18 September 2014 (issued every 10 minutes, with the page automatically refreshed every 10 minutes)

About coastal observations | Map of coastal stations | Coastal observations for TAS | Marine services | Other Formats
Station Details ID: 094029 Name: HOBART (ELLERSLIE ROAD) Lat: -42.89 Lon: 147.33 Height: 50.5 m
Data from the previous 72 hours. | See also: Recent months at Hobart
Date/Time
EST
Temp

°C
Wind Pressure Rain
since 9am
mm
Weather Cloud Vis
km
Sea
Height
m
Swell
Dir
 
Speed
knots
Gust
knots
hPa Trend Height
m
Period
s
Dir
18/11:30am 12.1 SW 12 21 1014.8 - 0.2 - - - - - - -
18/11:23am 11.0 SW 16 26 1015.0 - 0.2 - - - - - - -
18/11:16am 11.8 SW 18 26 1014.9 - 0.2 - - - - - - -
18/11:00am 12.6 SSW 12 16 1015.1 - 0.0 - - - - - - -
18/10:33am 11.5 WSW 15 26 1015.2 - 0.0 - - - - - - -
18/10:30am 11.5 WSW 14 26 1015.2 - 0.0 - - - - - - -
18/10:22am 11.5 WSW 18 28 1015.3 - 0.0 - - - - - - -
18/10:16am 11.4 SW 23 28 1015.3 - 0.0 - - - - - - -
18/10:00am 11.5 WSW 11 16 1015.5 - 0.0 - - - - - - -
18/09:30am 10.4 W 12 18 1015.7 - 0.0 - - - - - - -
18/09:00am 9.9 SW 11 17 1015.6 - 1.2 - - - - - - -
18/08:30am 9.1 SSE 5 7 1015.5 - 1.2 - - - - - - -
18/08:00am 7.5 SSW 9 13 1015.6 - 1.2 - - - - - - -
18/07:30am 7.7 SSW 11 16 1015.2 - 1.2 - - - - - - -
18/07:00am 7.8 SSW 5 8 1014.6 - 1.2 - - - - - - -
18/06:30am 7.5 SW 8 14 1014.1 - 1.2 - - - - - - -
18/06:00am 7.0 S 4 7 1013.5 - 1.2 - - - - - - -
18/05:30am 7.6 SSW 5 9 1013.1 - 1.2 - - - - - - -
18/05:00am 7.3 W 7 10 1012.8 - 1.2 - - - - - - -
18/04:30am 7.4 WSW 9 13 1012.5 - 1.2 - - - - - - -
18/04:00am 7.4 W 6 12 1012.4 - 1.2 - - - - - - -
18/03:30am 7.3 WSW 10 14 1012.0 - 1.2 - - - - - - -
18/03:00am 7.4 SW 14 27 1011.7 - 1.2 - - - - - - -
18/02:59am 7.5 SW 15 27 1011.7 - 1.2 - - - - - - -
18/02:30am 7.8 SW 10 15 1011.3 - 1.2 - - - - - - -
18/02:03am 7.8 SW 15 26 1010.9 - 1.2 - - - - - - -
18/02:00am 7.9 SW 15 23 1011.0 - 1.2 - - - - - - -
18/01:30am 7.5 SW 11 21 1010.9 - 1.2 - - - - - - -
18/01:00am 7.3 SW 12 20 1010.4 - 1.2 - - - - - - -
18/12:42am 7.3 WSW 15 29 1010.2 - 1.2 - - - - - - -
18/12:30am 7.3 WSW 14 22 1010.1 - 0.8 - - - - - - -
18/12:00am 7.0 NW 6 10 1009.9 - 0.6 Recent precip. - - - - - -
 
Date/Time
EST
Temp

°C
Wind Pressure Rain
since 9am
mm
Weather Cloud Vis
km
Sea
Height
m
Swell
Dir
 
Speed
knots
Gust
knots
hPa Trend Height
m
Period
s
Dir
17/11:30pm 7.3 WSW 9 17 1009.5 - 0.6 - - - - - - -
17/11:00pm 7.5 W 9 14 1009.1 - 0.4 - - - - - - -
17/10:30pm 7.7 SW 7 13 1008.6 - 0.4 - - - - - - -
17/10:00pm 7.1 NNW 4 11 1008.3 - 0.4 - - - - - - -
17/09:30pm 6.8 NNW 12 17 1007.9 - 0.4 - - - - - - -
17/09:00pm 6.3 NW 8 11 1007.9 - 0.4 - - - - - - -
17/08:30pm 7.3 NW 5 9 1007.3 - 0.4 - - - - - - -
17/08:00pm 7.3 NNW 3 8 1006.9 - 0.4 - - - - - - -
17/07:30pm 7.4 W 8 13 1006.9 - 0.4 - - - - - - -
17/07:00pm 7.2 W 5 7 1006.8 - 0.4 - - - - - - -
17/06:30pm 7.6 WNW 5 9 1006.5 - 0.4 - - - - - - -
17/06:00pm 8.0 W 6 10 1006.2 - 0.4 - - - - - - -
17/05:30pm 8.2 NNW 3 7 1005.6 - 0.4 - - - - - - -
17/05:00pm 8.9 WSW 6 14 1005.0 - 0.4 - - - - - - -
17/04:30pm 8.9 WSW 8 15 1004.4 - 0.4 - - - - - - -
17/04:00pm 8.6 WSW 16 24 1004.5 - 0.4 - - - - - - -
17/03:42pm 8.0 SW 16 26 1003.9 - 0.4 - - - - - - -
17/03:38pm 8.8 SW 19 26 1003.9 - 0.2 - - - - - - -
17/03:30pm 9.9 SW 6 13 1003.5 - 0.2 - - - - - - -
17/03:00pm 9.9 WSW 11 21 1003.0 - 0.2 - - - - - - -
17/02:30pm 9.9 SW 11 24 1003.0 - 0.2 - - - - - - -
17/02:00pm 9.2 WSW 11 21 1002.9 - 0.2 - - - - - - -
17/01:30pm 9.2 WSW 11 21 1002.8 - 0.2 - - - - - - -
17/01:00pm 8.7 SSW 12 24 1002.7 - 0.2 - - - - - - -
17/12:51pm 8.5 SW 16 26 1002.8 - 0.2 - - - - - - -
17/12:49pm 8.6 SW 19 26 1002.8 - 0.2 - - - - - - -
17/12:30pm 8.9 SSE 4 11 1003.2 - 0.2 - - - - - - -
17/12:00pm 8.1 SW 15 27 1002.8 - 0.2 Recent precip. - - - - - -
17/11:32am 8.7 SSW 15 29 1003.2 - 0.0 - - - - - - -
17/11:30am 9.0 SSW 13 19 1003.2 - 0.0 - - - - - - -
17/11:00am 9.8 NE 3 8 1003.1 - 0.0 - - - - - - -
17/10:30am 10.9 NNW 12 17 1002.9 - 0.0 - - - - - - -
17/10:00am 12.8 NW 9 14 1002.8 - 0.0 - - - - - - -
17/09:30am 12.9 NW 12 17 1003.2 - 0.0 - - - - - - -
17/09:00am 12.2 NNE 5 10 1003.6 - 0.0 - - - - - - -
17/08:30am 9.7 NNE 4 6 1003.8 - 0.0 - - - - - - -
17/08:00am 9.8 NNW 6 9 1004.0 - 0.0 - - - - - - -
17/07:30am 8.9 NNW 10 14 1004.0 - 0.0 - - - - - - -
17/07:00am 8.7 NW 11 15 1004.3 - 0.0 - - - - - - -
17/06:30am 7.9 NNW 11 15 1004.3 - 0.0 - - - - - - -
17/06:00am 8.0 NNW 9 13 1004.7 - 0.0 - - - - - - -
17/05:30am 9.1 NNW 13 17 1004.7 - 0.0 - - - - - - -
17/05:00am 7.9 WNW 7 10 1005.1 - 0.0 - - - - - - -
17/04:30am 8.4 NW 6 8 1005.4 - 0.0 - - - - - - -
17/04:00am 8.2 WSW 4 10 1005.7 - 0.0 - - - - - - -
17/03:30am 7.9 NW 10 13 1005.9 - 0.0 - - - - - - -
17/03:00am 8.3 NW 11 15 1006.2 - 0.0 - - - - - - -
17/02:30am 7.8 NW 5 13 1006.6 - 0.0 - - - - - - -
17/02:00am 8.0 WNW 2 7 1006.9 - 0.0 - - - - - - -
17/01:30am 8.4 NW 7 9 1007.3 - 0.0 - - - - - - -
17/01:00am 8.4 W 2 4 1007.6 - 0.0 - - - - - - -
17/12:30am 7.7 W 4 6 1007.6 - 0.0 - - - - - - -
17/12:00am 7.8 NNE 4 6 1007.6 - 0.0 - - - - - - -
 
Date/Time
EST
Temp

°C
Wind Pressure Rain
since 9am
mm
Weather Cloud Vis
km
Sea
Height
m
Swell
Dir
 
Speed
knots
Gust
knots
hPa Trend Height
m
Period
s
Dir
16/11:30pm 7.9 N 4 5 1007.9 - 0.0 - - - - - - -
16/11:00pm 7.9 W 3 5 1008.1 - 0.0 - - - - - - -
16/10:30pm 7.9 WSW 4 6 1008.3 - 0.0 - - - - - - -
16/10:00pm 8.4 NW 4 5 1008.6 - 0.0 - - - - - - -
16/09:30pm 8.7 NNW 3 5 1008.6 - 0.0 - - - - - - -
16/09:00pm 9.6 WSW 5 7 1008.8 - 0.0 - - - - - - -
16/08:30pm 8.8 W 6 8 1008.8 - 0.0 - - - - - - -
16/08:00pm 9.2 WSW 6 7 1008.8 - 0.0 - - - - - - -
16/07:30pm 9.6 WSW 7 8 1008.7 - 0.0 - - - - - - -
16/07:00pm 10.2 WSW 6 8 1008.8 - 0.0 - - - - - - -
16/06:30pm 11.4 WSW 5 7 1008.7 - 0.0 - - - - - - -
16/06:00pm 11.9 SSW 5 7 1008.9 - 0.0 - - - - - - -
16/05:30pm 12.6 SSW 5 7 1008.7 - 0.0 - - - - - - -
16/05:00pm 12.9 S 5 7 1008.6 - 0.0 - - - - - - -
16/04:30pm 12.9 SSE 6 8 1008.7 - 0.0 - - - - - - -
16/04:00pm 12.8 SE 7 10 1008.7 - 0.0 - - - - - - -
16/03:30pm 13.1 SE 8 9 1008.8 - 0.0 - - - - - - -
16/03:00pm 13.1 SE 7 11 1008.8 - 0.0 - - - - - - -
16/02:30pm 13.2 SE 8 11 1008.9 - 0.0 - - - - - - -
16/02:00pm 13.3 ESE 10 12 1009.1 - 0.0 - - - - - - -
16/01:30pm 13.4 ESE 9 11 1009.3 - 0.0 - - - - - - -
16/01:00pm 15.4 N 7 10 1009.5 - 0.0 - - - - - - -
16/12:30pm 14.6 N 6 10 1010.1 - 0.0 - - - - - - -
16/12:00pm 14.5 NNW 4 8 1011.0 - 0.0 - - - - - - -
16/11:30am 14.0 NNW 7 9 1011.5 - 0.0 - - - - - - -
16/11:00am 13.5 NNW 8 11 1011.9 - 0.0 - - - - - - -
16/10:30am 11.4 NNW 7 11 1012.3 - 0.0 - - - - - - -
16/10:00am 11.3 N 9 12 1012.6 - 0.0 - - - - - - -
16/09:30am 10.3 NNW 10 14 1012.9 - 0.0 - - - - - - -
16/09:00am 9.3 NNW 9 11 1013.1 - 0.0 - - - - - - -
16/08:30am 7.8 NNW 10 13 1013.4 - 0.0 - - - - - - -
16/08:00am 6.4 NNW 11 15 1013.5 - 0.0 - - - - - - -
16/07:30am 5.7 NNW 9 12 1013.5 - 0.0 - - - - - - -
16/07:00am 4.7 NNW 10 13 1013.6 - 0.0 - - - - - - -
16/06:30am 3.7 WNW 5 7 1013.5 - 0.0 - - - - - - -
16/06:00am 3.5 NW 5 6 1013.4 - 0.0 - - - - - - -
16/05:30am 3.7 NW 5 7 1013.4 - 0.0 - - - - - - -
16/05:00am 4.2 NW 10 13 1013.4 - 0.0 - - - - - - -
16/04:30am 4.1 WNW 4 7 1013.4 - 0.0 - - - - - - -
16/04:00am 4.9 NW 8 11 1013.3 - 0.0 - - - - - - -
16/03:30am 4.7 WNW 7 9 1013.4 - 0.0 - - - - - - -
16/03:00am 4.8 NW 9 12 1013.5 - 0.0 - - - - - - -
16/02:30am 5.0 NNW 9 11 1013.9 - 0.0 - - - - - - -
16/02:00am 5.3 NNW 8 9 1014.2 - 0.0 - - - - - - -
16/01:30am 5.2 NNW 7 9 1014.6 - 0.0 - - - - - - -
16/01:00am 4.8 NNW 4 6 1015.1 - 0.0 - - - - - - -
16/12:30am 5.3 CALM 0 0 1015.3 - 0.0 - - - - - - -
16/12:00am 5.7 CALM 0 0 1015.5 - 0.0 - - - - - - -
 
Date/Time
EST
Temp

°C
Wind Pressure Rain
since 9am
mm
Weather Cloud Vis
km
Sea
Height
m
Swell
Dir
 
Speed
knots
Gust
knots
hPa Trend Height
m
Period
s
Dir
15/11:30pm 6.0 N 1 3 1015.8 - 0.0 - - - - - - -
15/11:00pm 5.7 N 3 4 1016.1 - 0.0 - - - - - - -
15/10:30pm 5.8 W 3 3 1016.4 - 0.0 - - - - - - -
15/10:00pm 5.8 W 3 4 1016.5 - 0.0 - - - - - - -
15/09:30pm 5.9 W 4 5 1016.6 - 0.0 - - - - - - -
15/09:00pm 6.4 W 6 7 1016.6 - 0.0 - - - - - - -
15/08:30pm 6.7 W 6 8 1016.9 - 0.0 - - - - - - -
15/08:00pm 7.0 WSW 7 9 1016.9 - 0.0 - - - - - - -
15/07:30pm 7.8 WSW 6 7 1017.0 - 0.0 - - - - - - -
15/07:00pm 8.5 WSW 4 6 1016.9 - 0.0 - - - - - - -
15/06:30pm 9.0 SSW 4 6 1016.6 - 0.0 - - - - - - -
15/06:00pm 9.7 S 8 11 1016.6 - 0.0 - - - - - - -
15/05:30pm 10.2 SE 7 10 1016.6 - 0.0 - - - - - - -
15/05:00pm 10.4 SE 8 12 1016.5 - 0.0 - - - - - - -
15/04:30pm 10.4 SSE 10 13 1016.5 - 0.0 - - - - - - -
15/04:00pm 11.0 S 10 13 1016.3 - 0.0 - - - - - - -
15/03:30pm 11.1 SE 9 12 1016.3 - 0.0 - - - - - - -
15/03:00pm 11.6 SE 10 13 1016.6 - 0.0 - - - - - - -
15/02:30pm 11.5 SE 10 13 1016.8 - 0.0 - - - - - - -
15/02:00pm 11.6 E 10 13 1016.9 - 0.0 - - - - - - -
15/01:30pm 11.6 ESE 11 15 1017.1 - 0.0 - - - - - - -
15/01:00pm 11.7 ESE 11 14 1017.6 - 0.0 - - - - - - -
15/12:30pm 12.3 E 10 14 1017.8 - 0.0 - - - - - - -
15/12:00pm 11.7 SE 9 14 1018.1 - 0.0 - - - - - - -

Other Formats:

Comma delimited format used in spreadsheet applications
http://www.bom.gov.au/fwo/IDT60701/IDT60701.94970.axf

JavaScript Object Notation format (JSON) in row-major order
http://www.bom.gov.au/fwo/IDT60701/IDT60701.94970.json